sensor_id;sensor_type;location;lat;lon;timestamp;temperature;humidity
34640;DHT22;22600;48.186;11.526;2022-09-09T18:55:08;23.20;72.00
34640;DHT22;22600;48.186;11.526;2022-09-09T18:57:34;23.20;71.40
34640;DHT22;22600;48.186;11.526;2022-09-09T19:00:00;23.20;71.10
34640;DHT22;22600;48.186;11.526;2022-09-09T19:02:25;23.20;70.50
34640;DHT22;22600;48.186;11.526;2022-09-09T19:04:51;23.20;69.00
34640;DHT22;22600;48.186;11.526;2022-09-09T19:07:18;23.20;68.00
34640;DHT22;22600;48.186;11.526;2022-09-09T19:09:44;23.20;67.50
34640;DHT22;22600;48.186;11.526;2022-09-09T19:12:10;23.20;66.80
34640;DHT22;22600;48.186;11.526;2022-09-09T19:14:35;23.20;65.60
34640;DHT22;22600;48.186;11.526;2022-09-09T19:17:02;23.20;64.80
34640;DHT22;22600;48.186;11.526;2022-09-09T19:19:31;23.10;63.80
34640;DHT22;22600;48.186;11.526;2022-09-09T19:21:57;23.10;63.50
34640;DHT22;22600;48.186;11.526;2022-09-09T19:24:25;23.10;62.70
34640;DHT22;22600;48.186;11.526;2022-09-09T19:26:54;23.10;62.30
34640;DHT22;22600;48.186;11.526;2022-09-09T19:29:23;23.10;62.30
34640;DHT22;22600;48.186;11.526;2022-09-09T19:31:51;23.00;62.10
34640;DHT22;22600;48.186;11.526;2022-09-09T19:34:17;23.10;62.30
34640;DHT22;22600;48.186;11.526;2022-09-09T19:36:44;23.00;62.50
34640;DHT22;22600;48.186;11.526;2022-09-09T19:39:13;23.00;62.70
34640;DHT22;22600;48.186;11.526;2022-09-09T19:41:39;23.00;62.80
34640;DHT22;22600;48.186;11.526;2022-09-09T19:44:06;23.00;62.90
34640;DHT22;22600;48.186;11.526;2022-09-09T19:46:35;23.00;62.90
34640;DHT22;22600;48.186;11.526;2022-09-09T19:49:02;23.10;62.90
34640;DHT22;22600;48.186;11.526;2022-09-09T19:51:29;23.00;62.80
34640;DHT22;22600;48.186;11.526;2022-09-09T19:54:02;23.00;62.90
34640;DHT22;22600;48.186;11.526;2022-09-09T19:56:29;23.00;62.90
34640;DHT22;22600;48.186;11.526;2022-09-09T19:58:55;23.00;62.80
34640;DHT22;22600;48.186;11.526;2022-09-09T20:01:24;23.00;62.70
34640;DHT22;22600;48.186;11.526;2022-09-09T20:03:51;23.00;63.00
34640;DHT22;22600;48.186;11.526;2022-09-09T20:06:20;25.40;64.50
34640;DHT22;22600;48.186;11.526;2022-09-09T20:08:48;23.00;62.90
34640;DHT22;22600;48.186;11.526;2022-09-09T20:11:15;23.00;62.90
34640;DHT22;22600;48.186;11.526;2022-09-09T20:13:41;23.00;62.80
34640;DHT22;22600;48.186;11.526;2022-09-09T20:16:21;23.00;62.70
34640;DHT22;22600;48.186;11.526;2022-09-09T20:18:50;23.00;62.60
34640;DHT22;22600;48.186;11.526;2022-09-09T20:21:27;23.00;62.50
34640;DHT22;22600;48.186;11.526;2022-09-09T20:23:55;23.00;62.40
34640;DHT22;22600;48.186;11.526;2022-09-09T20:26:22;23.00;62.30
34640;DHT22;22600;48.186;11.526;2022-09-09T20:28:51;23.00;62.20
34640;DHT22;22600;48.186;11.526;2022-09-09T20:31:20;23.00;62.20
34640;DHT22;22600;48.186;11.526;2022-09-09T20:33:46;22.90;62.00
34640;DHT22;22600;48.186;11.526;2022-09-09T20:36:20;22.90;62.00
34640;DHT22;22600;48.186;11.526;2022-09-09T20:38:52;23.00;62.00
34640;DHT22;22600;48.186;11.526;2022-09-09T20:41:19;23.00;61.90
34640;DHT22;22600;48.186;11.526;2022-09-09T20:43:51;23.00;61.90
34640;DHT22;22600;48.186;11.526;2022-09-09T20:46:21;23.00;61.80
34640;DHT22;22600;48.186;11.526;2022-09-09T20:48:48;23.00;61.80
34640;DHT22;22600;48.186;11.526;2022-09-09T20:51:16;24.90;62.90
34640;DHT22;22600;48.186;11.526;2022-09-09T20:53:42;22.90;62.00
34640;DHT22;22600;48.186;11.526;2022-09-09T20:56:09;23.00;63.40
34640;DHT22;22600;48.186;11.526;2022-09-09T20:58:35;23.00;64.10
34640;DHT22;22600;48.186;11.526;2022-09-09T21:01:02;23.00;64.10
34640;DHT22;22600;48.186;11.526;2022-09-09T21:03:29;23.00;64.30
34640;DHT22;22600;48.186;11.526;2022-09-09T21:05:58;23.00;64.40
34640;DHT22;22600;48.186;11.526;2022-09-09T21:08:27;23.00;64.40
34640;DHT22;22600;48.186;11.526;2022-09-09T21:10:55;23.00;64.30
34640;DHT22;22600;48.186;11.526;2022-09-09T21:13:21;23.00;64.30
34640;DHT22;22600;48.186;11.526;2022-09-09T21:15:48;23.00;64.20
34640;DHT22;22600;48.186;11.526;2022-09-09T21:18:15;23.00;64.30
34640;DHT22;22600;48.186;11.526;2022-09-09T21:20:42;23.00;64.30
34640;DHT22;22600;48.186;11.526;2022-09-09T21:23:08;23.00;64.30
34640;DHT22;22600;48.186;11.526;2022-09-09T21:25:34;23.00;64.20
34640;DHT22;22600;48.186;11.526;2022-09-09T21:28:01;23.00;64.30
34640;DHT22;22600;48.186;11.526;2022-09-09T21:30:28;23.00;64.10
34640;DHT22;22600;48.186;11.526;2022-09-09T21:32:53;23.00;64.10
34640;DHT22;22600;48.186;11.526;2022-09-09T21:35:19;23.00;64.10
34640;DHT22;22600;48.186;11.526;2022-09-09T21:37:45;23.00;64.00
34640;DHT22;22600;48.186;11.526;2022-09-09T21:40:11;23.00;63.90
34640;DHT22;22600;48.186;11.526;2022-09-09T21:42:37;23.00;63.70
34640;DHT22;22600;48.186;11.526;2022-09-09T21:45:04;23.00;63.70
34640;DHT22;22600;48.186;11.526;2022-09-09T21:47:29;23.00;63.60
34640;DHT22;22600;48.186;11.526;2022-09-09T21:49:55;23.00;63.50
34640;DHT22;22600;48.186;11.526;2022-09-09T21:52:21;22.90;63.40
34640;DHT22;22600;48.186;11.526;2022-09-09T21:54:46;23.00;63.50
34640;DHT22;22600;48.186;11.526;2022-09-09T21:57:12;23.00;63.60
34640;DHT22;22600;48.186;11.526;2022-09-09T21:59:38;23.00;63.50
34640;DHT22;22600;48.186;11.526;2022-09-09T22:02:05;23.00;63.50
34640;DHT22;22600;48.186;11.526;2022-09-09T22:04:31;22.50;62.60
34640;DHT22;22600;48.186;11.526;2022-09-09T22:06:56;23.00;62.70
34640;DHT22;22600;48.186;11.526;2022-09-09T22:09:22;23.00;62.60
34640;DHT22;22600;48.186;11.526;2022-09-09T22:11:48;22.90;62.60
34640;DHT22;22600;48.186;11.526;2022-09-09T22:14:13;23.00;62.40
34640;DHT22;22600;48.186;11.526;2022-09-09T22:16:40;22.90;62.30
34640;DHT22;22600;48.186;11.526;2022-09-09T22:19:06;22.90;62.20
34640;DHT22;22600;48.186;11.526;2022-09-09T22:21:31;22.90;62.20
34640;DHT22;22600;48.186;11.526;2022-09-09T22:24:02;22.90;62.90
34640;DHT22;22600;48.186;11.526;2022-09-09T22:26:31;22.90;62.20
34640;DHT22;22600;48.186;11.526;2022-09-09T22:28:57;22.90;62.30
34640;DHT22;22600;48.186;11.526;2022-09-09T22:31:24;22.80;62.20
34640;DHT22;22600;48.186;11.526;2022-09-09T22:33:50;22.90;62.30
34640;DHT22;22600;48.186;11.526;2022-09-09T22:36:19;22.90;62.10
34640;DHT22;22600;48.186;11.526;2022-09-09T22:38:46;22.80;62.10
34640;DHT22;22600;48.186;11.526;2022-09-09T22:41:12;22.90;62.20
34640;DHT22;22600;48.186;11.526;2022-09-09T22:43:41;22.90;62.20
34640;DHT22;22600;48.186;11.526;2022-09-09T22:46:06;22.80;62.10
34640;DHT22;22600;48.186;11.526;2022-09-09T22:48:34;22.90;62.30
34640;DHT22;22600;48.186;11.526;2022-09-09T22:51:07;22.80;62.90
34640;DHT22;22600;48.186;11.526;2022-09-09T22:53:34;22.90;63.20
34640;DHT22;22600;48.186;11.526;2022-09-09T22:56:02;22.80;62.90
34640;DHT22;22600;48.186;11.526;2022-09-09T22:58:30;22.80;62.90
34640;DHT22;22600;48.186;11.526;2022-09-09T23:00:56;22.80;62.90
34640;DHT22;22600;48.186;11.526;2022-09-09T23:03:32;22.80;62.80
34640;DHT22;22600;48.186;11.526;2022-09-09T23:06:00;22.80;63.00
34640;DHT22;22600;48.186;11.526;2022-09-09T23:08:35;22.80;63.10
34640;DHT22;22600;48.186;11.526;2022-09-09T23:11:06;22.80;63.20
34640;DHT22;22600;48.186;11.526;2022-09-09T23:13:41;22.80;63.10
34640;DHT22;22600;48.186;11.526;2022-09-09T23:16:16;22.80;62.90
34640;DHT22;22600;48.186;11.526;2022-09-09T23:18:42;22.80;62.80
34640;DHT22;22600;48.186;11.526;2022-09-09T23:21:09;22.80;62.70
34640;DHT22;22600;48.186;11.526;2022-09-09T23:23:36;22.80;62.50
34640;DHT22;22600;48.186;11.526;2022-09-09T23:26:04;22.80;62.70
34640;DHT22;22600;48.186;11.526;2022-09-09T23:28:34;22.80;62.30
34640;DHT22;22600;48.186;11.526;2022-09-09T23:31:01;22.80;62.30
34640;DHT22;22600;48.186;11.526;2022-09-09T23:33:27;22.80;62.10
34640;DHT22;22600;48.186;11.526;2022-09-09T23:36:00;22.80;62.00
34640;DHT22;22600;48.186;11.526;2022-09-09T23:38:27;22.80;61.90
34640;DHT22;22600;48.186;11.526;2022-09-09T23:40:53;22.80;61.70
34640;DHT22;22600;48.186;11.526;2022-09-09T23:43:19;22.80;61.80
34640;DHT22;22600;48.186;11.526;2022-09-09T23:45:52;22.80;61.50
34640;DHT22;22600;48.186;11.526;2022-09-09T23:48:18;22.80;61.30
34640;DHT22;22600;48.186;11.526;2022-09-09T23:50:44;22.80;61.30
34640;DHT22;22600;48.186;11.526;2022-09-09T23:53:10;22.80;61.20
34640;DHT22;22600;48.186;11.526;2022-09-09T23:55:40;22.80;61.20
34640;DHT22;22600;48.186;11.526;2022-09-09T23:58:06;22.80;61.20
